Time;durP1;ratioP1;P1;durP2;ratioP2;P2;SDS_P1;SDS_P2;PMS_P1;PMS_P2;Temp;Humidity;BMP_temperature;BMP_pressure;BME280_temperature;BME280_humidity;BME280_pressure;Samples;Min_cycle;Max_cycle;Signal;HPM_P1;HPM_P2
2022/11/23 00:03:23;;;;;;;4.83;0.50;;;;;;;5.00;70.66;98635.03;10140196;29;20280;-80
2022/11/23 00:08:46;;;;;;;3.03;0.40;;;;;;;4.80;70.43;98641.44;10139960;29;20544;-80
2022/11/23 00:14:08;;;;;;;3.70;0.63;;;;;;;5.13;69.49;98631.16;10114094;29;20225;-81
2022/11/23 00:19:30;;;;;;;2.20;0.60;;;;;;;5.19;68.55;98651.34;10118416;29;20268;-80
2022/11/23 00:24:52;;;;;;;5.23;0.87;;;;;;;5.44;67.00;98641.94;10139413;29;20229;-81
2022/11/23 00:30:14;;;;;;;3.87;0.57;;;;;;;5.44;67.80;98641.94;10139947;29;20265;-81
2022/11/23 00:35:36;;;;;;;2.03;0.47;;;;;;;5.22;67.97;98645.09;10101640;29;20250;-80
2022/11/23 00:41:00;;;;;;;3.23;0.70;;;;;;;5.37;67.51;98658.41;10074415;29;20206;-80
2022/11/23 00:46:27;;;;;;;6.23;0.70;;;;;;;5.65;66.83;98661.47;10087479;29;20254;-81
2022/11/23 00:51:49;;;;;;;0.93;0.27;;;;;;;5.54;66.04;98660.25;10114034;29;20249;-81
2022/11/23 00:57:11;;;;;;;3.87;0.43;;;;;;;5.11;67.57;98672.56;10071699;29;20269;-80
2022/11/23 01:02:35;;;;;;;3.33;0.50;;;;;;;5.41;66.88;98664.97;10071606;29;20564;-79
2022/11/23 01:07:57;;;;;;;3.13;0.57;;;;;;;5.75;64.69;98666.66;10087144;29;20193;-80
2022/11/23 01:13:19;;;;;;;2.20;0.60;;;;;;;5.10;66.96;98670.13;10071075;29;20235;-80
2022/11/23 01:18:41;;;;;;;2.13;0.67;;;;;;;5.82;64.95;98672.47;10086862;29;20197;-80
2022/11/23 01:24:07;;;;;;;3.30;0.50;;;;;;;5.59;65.60;98669.25;10083299;29;20646;-81
2022/11/23 01:29:30;;;;;;;3.10;0.30;;;;;;;5.77;64.97;98663.47;10086631;29;20194;-80
2022/11/23 01:34:53;;;;;;;2.33;0.40;;;;;;;5.64;65.84;98673.78;10071003;29;20552;-81
2022/11/23 01:40:15;;;;;;;2.57;0.40;;;;;;;5.70;66.05;98682.81;10083428;29;20556;-80
2022/11/23 01:45:44;;;;;;;5.40;0.70;;;;;;;5.14;68.63;98696.19;10118096;29;20642;-81
2022/11/23 01:51:10;;;;;;;4.97;0.70;;;;;;;5.68;69.93;98685.13;10136629;29;20740;-81
2022/11/23 01:56:38;;;;;;;3.70;0.50;;;;;;;5.26;71.38;98706.66;10115944;29;20229;-81
2022/11/23 02:02:00;;;;;;;3.83;0.83;;;;;;;4.87;72.57;98706.72;10110379;29;20205;-80
2022/11/23 02:07:28;;;;;;;4.37;0.70;;;;;;;5.53;71.88;98706.94;10130327;29;20698;-81
2022/11/23 02:12:50;;;;;;;4.93;0.63;;;;;;;5.58;71.33;98709.53;10146665;29;20185;-82
2022/11/23 02:18:20;;;;;;;2.43;0.40;;;;;;;5.09;72.56;98708.41;10125193;29;20506;-81
2022/11/23 02:24:04;;;;;;;4.53;0.73;;;;;;;5.32;71.44;98710.91;10124786;29;20375;-81
2022/11/23 02:29:27;;;;;;;1.73;0.43;;;;;;;5.24;71.28;98710.63;10143999;29;20211;-81
2022/11/23 02:34:49;;;;;;;4.50;0.87;;;;;;;5.51;70.71;98714.84;10169718;29;20247;-82
2022/11/23 02:40:33;;;;;;;3.03;0.57;;;;;;;5.50;70.47;98718.78;10156966;29;20193;-81
2022/11/23 02:45:58;;;;;;;4.53;0.50;;;;;;;5.70;69.66;98721.94;10153065;29;20315;-82
2022/11/23 02:51:23;;;;;;;2.13;0.40;;;;;;;5.32;70.86;98722.91;10140952;29;20205;-82
2022/11/23 02:56:45;;;;;;;2.80;0.50;;;;;;;5.31;70.26;98715.66;10165648;29;20211;-80
2022/11/23 03:02:08;;;;;;;0.73;0.50;;;;;;;5.57;68.84;98729.44;10152982;29;20204;-82
2022/11/23 03:07:30;;;;;;;1.50;0.60;;;;;;;5.41;69.67;98726.44;10152210;29;20613;-81
2022/11/23 03:12:55;;;;;;;2.63;0.40;;;;;;;5.75;68.64;98730.13;10165349;29;20256;-81
2022/11/23 03:18:17;;;;;;;2.40;0.50;;;;;;;5.99;67.57;98732.19;10152274;29;20665;-80
2022/11/23 03:23:39;;;;;;;4.10;0.87;;;;;;;5.51;68.78;98736.38;10164356;29;20220;-80
2022/11/23 03:29:02;;;;;;;1.97;0.40;;;;;;;5.59;68.51;98741.91;10152128;29;20200;-80
2022/11/23 03:34:24;;;;;;;3.40;0.50;;;;;;;5.73;68.52;98738.03;10151496;29;20483;-80
2022/11/23 03:39:46;;;;;;;4.00;0.70;;;;;;;5.23;70.77;98730.53;10151223;29;20200;-79
2022/11/23 03:45:28;;;;;;;2.77;0.40;;;;;;;5.39;71.55;98753.91;10159498;29;20287;-80
2022/11/23 03:50:50;;;;;;;4.60;0.40;;;;;;;5.67;71.13;98745.78;10150860;29;20228;-80
2022/11/23 03:56:14;;;;;;;4.03;0.70;;;;;;;5.39;72.38;98741.91;10150920;29;20240;-80
2022/11/23 04:01:36;;;;;;;3.60;0.50;;;;;;;5.04;73.92;98744.91;10137502;29;20265;-79
2022/11/23 04:07:02;;;;;;;4.97;0.87;;;;;;;5.30;72.83;98755.94;10141970;29;20228;-80
2022/11/23 04:12:28;;;;;;;2.77;0.40;;;;;;;5.07;74.66;98751.78;10150749;29;20354;-80
2022/11/23 04:17:50;;;;;;;1.53;0.63;;;;;;;5.47;72.37;98755.81;10150156;29;20197;-80
2022/11/23 04:23:13;;;;;;;2.57;0.50;;;;;;;5.15;74.25;98753.72;10124868;29;20224;-80
2022/11/23 04:28:38;;;;;;;1.73;0.40;;;;;;;5.17;73.54;98754.22;10133317;29;20233;-80
2022/11/23 04:34:01;;;;;;;6.00;0.53;;;;;;;5.11;74.44;98758.34;10152990;29;20618;-80
2022/11/23 04:39:25;;;;;;;2.43;0.90;;;;;;;5.46;74.33;98750.56;10127536;29;20610;-80
2022/11/23 04:45:13;;;;;;;1.33;0.30;;;;;;;5.04;74.53;98756.06;10146023;29;20260;-80
2022/11/23 04:50:40;;;;;;;1.33;0.43;;;;;;;5.22;73.67;98756.81;10077097;29;20356;-80
2022/11/23 04:56:09;;;;;;;0.50;0.40;;;;;;;5.15;74.29;98757.34;10088265;29;20596;-80
2022/11/23 05:01:31;;;;;;;3.60;0.60;;;;;;;5.84;71.39;98761.59;10084237;29;20197;-80
2022/11/23 05:07:11;;;;;;;2.77;0.60;;;;;;;5.40;73.24;98769.50;10070767;29;20230;-80
2022/11/23 05:12:37;;;;;;;1.70;0.73;;;;;;;5.27;73.30;98755.78;10086867;29;20333;-79
2022/11/23 05:18:05;;;;;;;2.73;0.73;;;;;;;5.16;74.36;98758.97;10099201;29;20289;-80
2022/11/23 05:23:28;;;;;;;3.17;0.70;;;;;;;5.23;73.57;98764.88;10086571;29;20250;-82
2022/11/23 05:28:52;;;;;;;7.30;0.70;;;;;;;5.07;73.92;98751.78;10086720;29;20278;-79
2022/11/23 05:34:15;;;;;;;2.10;0.67;;;;;;;5.64;72.13;98762.41;10099086;29;20495;-79
2022/11/23 05:39:38;;;;;;;3.60;1.10;;;;;;;5.34;72.21;98768.06;10080798;29;20262;-80
2022/11/23 05:45:01;;;;;;;3.63;0.80;;;;;;;5.38;71.63;98766.22;10068539;29;20277;-80
2022/11/23 05:50:28;;;;;;;4.53;0.80;;;;;;;5.51;71.41;98772.72;10082475;29;20278;-81
2022/11/23 05:56:11;;;;;;;3.40;0.90;;;;;;;5.66;69.58;98771.28;10096291;29;20663;-81
2022/11/23 06:01:51;;;;;;;2.90;1.00;;;;;;;5.19;70.95;98763.91;10095844;29;20282;-81
2022/11/23 06:07:14;;;;;;;6.37;1.10;;;;;;;5.59;69.49;98766.25;10092251;29;20225;-82
2022/11/23 06:12:41;;;;;;;2.77;0.80;;;;;;;5.48;69.56;98770.63;10083219;29;20207;-80
2022/11/23 06:18:03;;;;;;;3.63;0.63;;;;;;;5.40;69.77;98766.72;10104260;29;20206;-80
2022/11/23 06:23:26;;;;;;;4.17;0.90;;;;;;;5.53;69.28;98768.41;10102938;29;20782;-79
2022/11/23 06:28:50;;;;;;;5.53;1.10;;;;;;;5.11;70.18;98770.31;10066020;29;20599;-81
2022/11/23 06:34:12;;;;;;;2.53;0.57;;;;;;;5.13;70.44;98776.38;10055935;29;20218;-79
2022/11/23 06:39:35;;;;;;;4.47;1.27;;;;;;;5.58;68.92;98773.81;10051839;29;20210;-78
2022/11/23 06:44:57;;;;;;;2.87;0.70;;;;;;;5.64;69.71;98771.63;10094498;29;20278;-78
2022/11/23 06:50:20;;;;;;;5.10;0.60;;;;;;;5.12;71.60;98773.91;10090608;29;20261;-78
2022/11/23 06:55:43;;;;;;;3.63;1.40;;;;;;;5.26;70.95;98785.69;10108985;29;20615;-78
2022/11/23 07:01:07;;;;;;;3.10;0.80;;;;;;;5.39;70.74;98786.59;10086818;29;20274;-78
2022/11/23 07:06:40;;;;;;;5.00;1.30;;;;;;;5.22;70.94;98798.72;10096067;29;20326;-79
2022/11/23 07:12:12;;;;;;;3.43;0.90;;;;;;;5.57;70.19;98796.50;10084897;29;20233;-78
2022/11/23 07:17:39;;;;;;;4.63;1.37;;;;;;;5.51;70.05;98798.69;10080686;29;20232;-79
2022/11/23 07:23:04;;;;;;;2.87;0.47;;;;;;;5.49;69.62;98806.59;10103404;29;20232;-78
2022/11/23 07:28:26;;;;;;;6.57;0.50;;;;;;;5.49;69.94;98815.00;10113682;29;20234;-77
2022/11/23 07:33:48;;;;;;;5.17;0.93;;;;;;;5.26;70.00;98819.22;10104267;29;20556;-78
2022/11/23 07:39:10;;;;;;;2.57;0.80;;;;;;;5.02;70.48;98816.19;10104610;29;20520;-79
2022/11/23 07:44:32;;;;;;;3.17;0.70;;;;;;;5.40;68.53;98819.78;10106464;29;20249;-78
2022/11/23 07:49:54;;;;;;;2.23;0.67;;;;;;;5.15;68.95;98829.13;10102686;29;20256;-78
2022/11/23 07:55:17;;;;;;;2.50;0.67;;;;;;;5.39;68.13;98832.13;10118701;29;20266;-80
2022/11/23 08:00:39;;;;;;;4.30;0.87;;;;;;;5.31;67.58;98830.22;10106841;29;20309;-79
2022/11/23 08:06:01;;;;;;;2.87;0.60;;;;;;;5.49;66.53;98834.56;10099676;29;20278;-80
2022/11/23 08:11:23;;;;;;;6.07;1.10;;;;;;;5.42;66.09;98841.81;10098549;29;20230;-78
2022/11/23 08:16:52;;;;;;;3.10;0.40;;;;;;;5.54;65.94;98841.91;10107829;29;20217;-79
2022/11/23 08:22:14;;;;;;;3.90;0.53;;;;;;;5.77;64.44;98834.81;10103567;29;20917;-79
2022/11/23 08:27:36;;;;;;;2.13;0.70;;;;;;;5.99;63.54;98839.28;10113154;29;20273;-80
2022/11/23 08:32:58;;;;;;;6.13;0.97;;;;;;;6.20;62.65;98840.06;10104837;29;20269;-79
2022/11/23 08:38:20;;;;;;;3.73;0.60;;;;;;;5.80;62.17;98850.09;10090997;29;20225;-79
2022/11/23 08:43:42;;;;;;;3.77;0.80;;;;;;;6.12;61.98;98835.38;10091358;29;20273;-79
2022/11/23 08:49:06;;;;;;;4.53;0.83;;;;;;;6.17;61.37;98843.56;10062225;29;20270;-79
2022/11/23 08:54:28;;;;;;;3.60;0.50;;;;;;;6.27;59.88;98843.16;10050985;29;20207;-80
2022/11/23 08:59:50;;;;;;;2.20;0.60;;;;;;;6.75;58.55;98847.31;10062150;29;20226;-79
2022/11/23 09:05:12;;;;;;;4.47;0.70;;;;;;;6.80;58.51;98844.25;10037365;29;20593;-79
2022/11/23 09:10:34;;;;;;;3.20;0.77;;;;;;;6.40;58.28;98862.81;10038181;29;20246;-80
2022/11/23 09:16:01;;;;;;;4.13;0.80;;;;;;;6.71;57.73;98851.94;10033326;29;20889;-80
2022/11/23 09:21:28;;;;;;;4.27;0.80;;;;;;;6.21;57.50;98858.50;10022817;29;20225;-79
2022/11/23 09:26:50;;;;;;;7.53;1.00;;;;;;;6.85;56.48;98857.25;10045284;29;20261;-80
2022/11/23 09:32:12;;;;;;;4.07;0.77;;;;;;;6.11;57.32;98856.13;10053086;29;20281;-81
2022/11/23 09:37:34;;;;;;;5.47;0.87;;;;;;;6.47;57.02;98857.47;10054197;29;20585;-80
2022/11/23 09:43:05;;;;;;;5.07;1.03;;;;;;;6.17;56.80;98857.53;10065220;29;20222;-82
2022/11/23 09:49:00;;;;;;;4.20;0.90;;;;;;;6.04;57.44;98852.22;10087281;29;20304;-80
2022/11/23 09:54:35;;;;;;;4.63;0.80;;;;;;;6.64;56.18;98874.94;10118744;29;20190;-81
2022/11/23 10:00:06;;;;;;;5.43;1.23;;;;;;;6.74;56.02;98862.47;10109543;29;20633;-81
2022/11/23 10:05:32;;;;;;;3.73;0.60;;;;;;;6.15;57.08;98870.25;10116341;29;20265;-81
2022/11/23 10:10:57;;;;;;;6.00;1.27;;;;;;;6.59;56.47;98861.13;10116779;29;20225;-81
2022/11/23 10:16:38;;;;;;;3.83;0.90;;;;;;;6.82;55.39;98863.53;10128954;29;20548;-80
2022/11/23 10:22:06;;;;;;;5.13;0.83;;;;;;;6.84;55.39;98878.81;10128454;29;20261;-81
2022/11/23 10:27:28;;;;;;;9.87;1.53;;;;;;;7.18;54.67;98860.00;10107882;29;20252;-80
2022/11/23 10:33:01;;;;;;;4.53;1.00;;;;;;;7.11;53.44;98865.34;10119090;29;20280;-80
2022/11/23 10:38:27;;;;;;;8.03;1.20;;;;;;;7.00;53.83;98864.97;10116870;29;20224;-80
2022/11/23 10:43:59;;;;;;;6.33;0.97;;;;;;;6.66;55.15;98869.00;10148375;29;20205;-80
2022/11/23 10:49:29;;;;;;;6.53;1.03;;;;;;;6.08;55.23;98862.41;10150356;29;20289;-82
2022/11/23 10:54:56;;;;;;;4.87;1.20;;;;;;;6.07;55.69;98866.34;10154213;29;20194;-80
2022/11/23 11:00:20;;;;;;;8.77;1.80;;;;;;;6.11;54.42;98853.34;10122793;29;20197;-80
2022/11/23 11:05:49;;;;;;;8.30;1.73;;;;;;;6.62;53.14;98848.44;10130834;29;20260;-83
2022/11/23 11:11:23;;;;;;;6.67;1.30;;;;;;;6.31;53.88;98838.50;10113474;29;20257;-80
2022/11/23 11:16:53;;;;;;;6.33;1.03;;;;;;;7.25;50.69;98826.59;10125137;29;20304;-80
2022/11/23 11:22:33;;;;;;;6.03;0.93;;;;;;;7.00;51.12;98820.16;10114201;29;20236;-81
2022/11/23 11:27:57;;;;;;;6.37;0.90;;;;;;;6.57;51.04;98820.66;10133851;29;20328;-81
2022/11/23 11:33:29;;;;;;;2.80;0.57;;;;;;;6.58;51.01;98805.50;10127530;29;20253;-81
2022/11/23 11:38:52;;;;;;;3.70;0.90;;;;;;;6.86;50.11;98802.88;10132999;29;20215;-81
2022/11/23 11:44:23;;;;;;;4.83;1.00;;;;;;;7.05;49.47;98799.50;10127254;29;20684;-81
2022/11/23 11:49:47;;;;;;;3.70;1.10;;;;;;;7.31;49.84;98785.97;10155795;29;20472;-80
2022/11/23 11:55:47;;;;;;;5.87;1.23;;;;;;;6.65;51.66;98786.16;10154067;29;20598;-81
2022/11/23 12:01:32;;;;;;;6.40;1.20;;;;;;;7.44;49.52;98783.97;10130853;29;20237;-80
2022/11/23 12:07:03;;;;;;;5.40;0.70;;;;;;;6.45;50.09;98782.25;10081372;29;20249;-80
2022/11/23 12:12:25;;;;;;;6.13;1.10;;;;;;;6.75;49.18;98774.50;10104712;29;20233;-80
2022/11/23 12:18:25;;;;;;;4.53;0.90;;;;;;;6.79;48.90;98769.84;10128526;29;20234;-80
2022/11/23 12:23:59;;;;;;;4.10;1.20;;;;;;;7.26;48.55;98775.81;10139930;29;20217;-79
2022/11/23 12:29:44;;;;;;;6.87;1.20;;;;;;;7.07;49.10;98777.53;10098716;29;20213;-81
2022/11/23 12:35:30;;;;;;;4.23;1.07;;;;;;;7.09;48.98;98773.22;10118499;29;20220;-80
2022/11/23 12:41:05;;;;;;;7.67;2.37;;;;;;;7.09;49.55;98780.81;10116287;29;20602;-80
2022/11/23 12:46:37;;;;;;;3.60;1.00;;;;;;;6.78;49.60;98785.00;10116632;29;20654;-81
2022/11/23 12:52:24;;;;;;;3.17;1.40;;;;;;;6.77;49.47;98794.56;10128250;29;20259;-81
2022/11/23 12:58:09;;;;;;;4.73;1.03;;;;;;;7.07;48.63;98786.75;10121387;29;20248;-80
2022/11/23 13:04:04;;;;;;;2.50;0.70;;;;;;;6.79;49.32;98783.84;10118350;29;20235;-81
2022/11/23 13:09:41;;;;;;;3.20;0.87;;;;;;;6.30;50.17;98783.69;10118942;29;20280;-80
2022/11/23 13:15:22;;;;;;;4.57;1.33;;;;;;;7.14;49.31;98775.00;10139361;29;20594;-81
2022/11/23 13:20:56;;;;;;;5.40;1.20;;;;;;;7.25;48.59;98759.34;10106082;29;20808;-80
2022/11/23 13:26:21;;;;;;;3.23;1.00;;;;;;;6.67;49.37;98767.00;10133240;29;20292;-82
2022/11/23 13:31:43;;;;;;;3.43;0.97;;;;;;;6.91;48.91;98755.84;10098908;29;20279;-82
2022/11/23 13:37:05;;;;;;;3.47;0.77;;;;;;;6.38;49.33;98753.19;10101079;29;20209;-81
2022/11/23 13:42:30;;;;;;;5.43;1.20;;;;;;;6.89;48.37;98724.56;10103163;29;20302;-82
2022/11/23 13:48:12;;;;;;;3.70;1.20;;;;;;;6.51;48.67;98740.88;10116862;29;20666;-82
2022/11/23 13:53:38;;;;;;;3.20;0.90;;;;;;;6.64;48.35;98722.94;10113278;29;20284;-81
2022/11/23 13:59:24;;;;;;;2.67;0.90;;;;;;;6.55;48.54;98719.41;10112495;29;20240;-82
2022/11/23 14:04:47;;;;;;;4.80;0.87;;;;;;;6.43;48.62;98717.41;10119747;29;20252;-81
2022/11/23 14:10:20;;;;;;;7.87;2.33;;;;;;;6.46;48.32;98727.09;10105997;29;20237;-81
2022/11/23 14:15:50;;;;;;;6.13;1.00;;;;;;;6.76;47.58;98717.34;10117722;29;20198;-81
2022/11/23 14:21:33;;;;;;;6.50;1.20;;;;;;;6.48;48.00;98713.56;10108472;29;20236;-81
2022/11/23 14:27:05;;;;;;;1.47;0.83;;;;;;;6.60;47.99;98724.78;10151874;29;20248;-82
2022/11/23 14:32:56;;;;;;;3.70;1.17;;;;;;;6.49;48.87;98732.00;10089354;29;20243;-82
2022/11/23 14:38:40;;;;;;;3.83;0.97;;;;;;;6.71;48.30;98734.34;10104694;29;20563;-81
2022/11/23 14:44:04;;;;;;;2.70;0.80;;;;;;;6.35;49.76;98725.88;10118549;29;20498;-80
2022/11/23 14:49:26;;;;;;;3.10;0.73;;;;;;;6.30;49.72;98727.72;10135831;29;20260;-83
2022/11/23 14:54:50;;;;;;;3.40;0.60;;;;;;;6.12;50.10;98723.50;10116997;29;20217;-80
2022/11/23 15:00:40;;;;;;;6.17;0.90;;;;;;;6.07;50.45;98720.91;10125854;29;20495;-81
2022/11/23 15:06:07;;;;;;;5.83;1.00;;;;;;;5.68;51.38;98739.03;10118588;29;20256;-80
2022/11/23 15:11:32;;;;;;;4.70;0.67;;;;;;;6.07;50.45;98740.50;10099779;29;20245;-81
2022/11/23 15:16:54;;;;;;;2.70;0.63;;;;;;;5.86;50.06;98737.75;10123409;29;20251;-82
2022/11/23 15:22:18;;;;;;;5.47;0.63;;;;;;;5.75;50.71;98735.72;10117345;29;20229;-81
2022/11/23 15:27:41;;;;;;;5.33;0.93;;;;;;;5.98;50.85;98736.97;10125799;29;20241;-81
2022/11/23 15:33:10;;;;;;;4.50;0.60;;;;;;;6.23;49.28;98740.66;10152950;29;20837;-80
2022/11/23 15:38:32;;;;;;;5.67;1.17;;;;;;;6.26;49.98;98746.41;10116761;29;20240;-80
2022/11/23 15:43:59;;;;;;;3.80;0.80;;;;;;;6.16;50.42;98763.59;10106124;29;20506;-82
2022/11/23 15:49:22;;;;;;;2.83;1.00;;;;;;;6.06;50.46;98769.63;10122036;29;20252;-81
2022/11/23 15:54:46;;;;;;;4.93;1.03;;;;;;;6.64;48.99;98762.13;10099076;29;20208;-80
2022/11/23 16:00:21;;;;;;;3.40;0.90;;;;;;;6.35;50.12;98779.88;10099093;29;20289;-80
2022/11/23 16:05:43;;;;;;;4.80;0.80;;;;;;;6.39;50.28;98782.81;10101307;29;20240;-83
2022/11/23 16:11:30;;;;;;;2.87;0.50;;;;;;;5.96;50.21;98786.81;10128071;29;20206;-83
2022/11/23 16:17:20;;;;;;;4.63;0.80;;;;;;;6.48;51.19;98794.75;10114553;29;20221;-83
2022/11/23 16:22:48;;;;;;;4.43;1.70;;;;;;;5.96;53.50;98806.41;10121558;29;20227;-82
2022/11/23 16:28:16;;;;;;;5.37;1.70;;;;;;;6.19;52.42;98810.47;10131243;29;20559;-82
2022/11/23 16:33:38;;;;;;;2.97;0.67;;;;;;;6.28;52.89;98811.19;10113085;29;20284;-82
2022/11/23 16:39:01;;;;;;;3.00;0.73;;;;;;;6.23;53.06;98830.19;9759539;29;20223;-81
2022/11/23 16:44:23;;;;;;;3.70;1.20;;;;;;;6.06;53.41;98844.31;10117728;29;20288;-81
2022/11/23 16:49:45;;;;;;;4.00;1.00;;;;;;;6.22;53.54;98853.72;10118681;29;20268;-83
2022/11/23 16:55:07;;;;;;;1.87;0.77;;;;;;;5.86;54.33;98865.53;10135488;29;20314;-83
2022/11/23 17:00:31;;;;;;;4.17;1.23;;;;;;;6.24;53.99;98879.38;10105918;29;20233;-82
2022/11/23 17:05:53;;;;;;;6.37;1.33;;;;;;;6.02;54.54;98891.72;10117969;29;20245;-83
2022/11/23 17:11:18;;;;;;;4.23;0.87;;;;;;;6.10;55.17;98899.25;10116289;29;20224;-82
2022/11/23 17:16:41;;;;;;;5.20;1.20;;;;;;;6.27;56.05;98917.88;10114578;29;20228;-81
2022/11/23 17:22:03;;;;;;;7.67;1.47;;;;;;;5.86;58.70;98927.06;10118856;29;20292;-81
2022/11/23 17:27:27;;;;;;;6.83;1.90;;;;;;;5.51;60.56;98932.81;10137166;29;20331;-82
2022/11/23 17:32:49;;;;;;;4.33;1.97;;;;;;;5.79;62.33;98935.97;10133271;29;20232;-82
2022/11/23 17:38:13;;;;;;;6.77;2.53;;;;;;;5.48;62.98;98944.69;10132232;29;20228;-81
2022/11/23 17:43:35;;;;;;;6.87;3.10;;;;;;;5.22;63.71;98943.97;10110700;29;20204;-81
2022/11/23 17:49:00;;;;;;;2.83;1.20;;;;;;;5.39;63.48;98952.25;10116529;29;20275;-81
2022/11/23 17:54:23;;;;;;;6.53;1.07;;;;;;;5.18;63.91;98970.91;10128294;29;20228;-82
2022/11/23 17:59:45;;;;;;;5.03;1.00;;;;;;;5.47;63.75;98945.03;10115095;29;20225;-83
2022/11/23 18:05:12;;;;;;;7.63;1.37;;;;;;;5.69;63.05;98964.31;10121039;29;20228;-82
2022/11/23 18:10:35;;;;;;;6.33;1.20;;;;;;;5.37;65.16;98974.13;10113514;29;20293;-83
2022/11/23 18:15:57;;;;;;;5.33;1.13;;;;;;;5.21;65.61;98961.88;10122642;29;20205;-83
2022/11/23 18:21:19;;;;;;;3.33;0.70;;;;;;;4.94;65.72;98967.81;10131480;29;20237;-82
2022/11/23 18:26:41;;;;;;;2.70;0.70;;;;;;;4.97;65.61;98995.91;10123628;29;20260;-81
2022/11/23 18:32:05;;;;;;;3.73;1.10;;;;;;;5.39;63.91;99005.34;10115206;29;20547;-82
2022/11/23 18:37:27;;;;;;;1.83;0.80;;;;;;;5.04;64.64;99007.38;10119399;29;20221;-81
2022/11/23 18:42:49;;;;;;;2.13;0.90;;;;;;;4.83;64.23;98993.28;10120489;29;20245;-81
2022/11/23 18:48:12;;;;;;;1.97;0.50;;;;;;;5.26;63.51;99002.75;10120817;29;20293;-82
2022/11/23 18:53:35;;;;;;;4.10;0.93;;;;;;;5.05;64.47;99006.22;10138552;29;20228;-81
2022/11/23 18:58:57;;;;;;;3.80;1.30;;;;;;;5.18;64.32;99015.59;10121043;29;20229;-82
2022/11/23 19:04:19;;;;;;;1.80;0.77;;;;;;;5.16;64.27;99027.09;10130105;29;20284;-81
2022/11/23 19:09:42;;;;;;;1.73;0.90;;;;;;;5.37;64.13;99038.38;10134858;29;20313;-82
2022/11/23 19:15:05;;;;;;;1.20;0.90;;;;;;;5.09;65.68;99045.50;10131614;29;20212;-83
2022/11/23 19:20:28;;;;;;;2.60;1.10;;;;;;;5.09;64.96;99059.47;10137772;29;20224;-82
2022/11/23 19:25:50;;;;;;;3.63;1.00;;;;;;;5.11;65.64;99051.56;10129327;29;20518;-82
2022/11/23 19:31:17;;;;;;;2.47;1.00;;;;;;;5.02;66.22;99064.69;10112249;29;20268;-81
2022/11/23 19:36:39;;;;;;;2.00;0.90;;;;;;;4.79;66.98;99066.84;10109716;29;20432;-82
2022/11/23 19:42:02;;;;;;;3.30;1.00;;;;;;;5.39;64.81;99089.16;10125921;29;20256;-82
2022/11/23 19:47:24;;;;;;;4.73;1.30;;;;;;;4.95;66.83;99092.31;10120488;29;20311;-83
2022/11/23 19:52:46;;;;;;;2.30;0.70;;;;;;;5.02;66.27;99109.38;10117461;29;20304;-82
2022/11/23 19:58:08;;;;;;;4.90;1.17;;;;;;;4.85;67.53;99085.88;10114465;29;20753;-81
2022/11/23 20:03:35;;;;;;;3.20;1.53;;;;;;;5.38;65.92;99090.31;10085514;29;20229;-81
2022/11/23 20:08:58;;;;;;;3.00;0.87;;;;;;;5.11;65.63;99101.84;10122768;29;20260;-82
2022/11/23 20:14:20;;;;;;;3.80;0.97;;;;;;;5.04;67.24;99107.09;10108022;29;20265;-80
2022/11/23 20:19:42;;;;;;;4.73;0.90;;;;;;;5.16;67.04;99118.44;10120050;29;20197;-81
2022/11/23 20:25:05;;;;;;;1.87;1.00;;;;;;;5.35;66.44;99123.72;10112967;29;20300;-81
2022/11/23 20:30:27;;;;;;;4.60;1.40;;;;;;;5.05;66.71;99137.47;10139551;29;20622;-81
2022/11/23 20:35:49;;;;;;;4.33;1.17;;;;;;;5.04;67.37;99132.22;10128549;29;20208;-81
2022/11/23 20:41:12;;;;;;;6.33;2.00;;;;;;;5.58;65.14;99142.75;10122365;29;20224;-83
2022/11/23 20:46:34;;;;;;;2.93;1.30;;;;;;;5.86;64.75;99139.56;10112996;29;20281;-81
2022/11/23 20:51:57;;;;;;;3.80;1.90;;;;;;;5.51;66.01;99145.19;10115150;29;20600;-83
2022/11/23 20:57:20;;;;;;;8.23;2.27;;;;;;;5.27;66.74;99158.88;10110855;29;20609;-83
2022/11/23 21:02:43;;;;;;;3.20;1.33;;;;;;;5.98;65.07;99164.84;10136219;29;20491;-83
2022/11/23 21:08:05;;;;;;;4.23;1.53;;;;;;;5.48;65.65;99162.66;10123705;29;20256;-83
2022/11/23 21:19:09;;;;;;;5.67;2.60;;;;;;;5.41;66.44;99165.09;10130646;29;20550;-83
2022/11/23 21:24:31;;;;;;;9.33;4.13;;;;;;;5.52;65.85;99169.22;10123742;29;20209;-83
2022/11/23 21:29:53;;;;;;;6.30;2.07;;;;;;;5.40;66.74;99171.84;10144672;29;20275;-83
2022/11/23 21:35:15;;;;;;;8.37;3.20;;;;;;;5.63;66.52;99185.66;10124866;29;20555;-83
2022/11/23 21:40:37;;;;;;;7.63;2.17;;;;;;;5.69;66.08;99195.50;10137729;29;20249;-83
2022/11/23 21:46:01;;;;;;;17.10;3.17;;;;;;;5.14;67.98;99196.13;10108596;29;20526;-84
2022/11/23 21:51:25;;;;;;;8.47;2.30;;;;;;;5.55;66.44;99192.88;10120380;29;20196;-82
2022/11/23 21:56:47;;;;;;;6.33;2.83;;;;;;;5.74;66.22;99209.31;10106117;29;20197;-83
2022/11/23 22:02:10;;;;;;;8.73;2.40;;;;;;;5.25;68.47;99214.25;10129857;29;20269;-82
2022/11/23 22:07:33;;;;;;;8.17;2.90;;;;;;;5.61;67.15;99221.50;10125112;29;20308;-82
2022/11/23 22:12:55;;;;;;;8.13;2.20;;;;;;;5.52;67.26;99225.09;10127085;29;20221;-82
2022/11/23 22:18:17;;;;;;;7.50;1.87;;;;;;;5.48;67.55;99218.56;10117361;29;20268;-81
2022/11/23 22:23:39;;;;;;;10.80;3.23;;;;;;;5.89;66.54;99233.97;10121730;29;20201;-83
2022/11/23 22:29:04;;;;;;;8.20;2.27;;;;;;;5.21;68.60;99235.63;10129375;29;20260;-83
2022/11/23 22:34:28;;;;;;;9.47;2.70;;;;;;;5.99;66.10;99239.22;10130861;29;20555;-83
2022/11/23 22:39:50;;;;;;;10.70;3.37;;;;;;;5.36;68.22;99242.72;10130857;29;20499;-82
2022/11/23 22:45:12;;;;;;;10.80;2.83;;;;;;;5.42;67.70;99250.59;10124174;29;20276;-82
2022/11/23 22:50:35;;;;;;;10.77;4.20;;;;;;;5.85;66.23;99255.38;10126803;29;20277;-82
2022/11/23 22:56:03;;;;;;;10.17;3.23;;;;;;;5.48;68.51;99273.63;10098756;29;20264;-82
2022/11/23 23:01:27;;;;;;;16.77;4.17;;;;;;;5.56;67.28;99270.00;10108395;29;20209;-82
2022/11/23 23:06:49;;;;;;;10.87;3.33;;;;;;;5.62;66.86;99279.88;10113154;29;20221;-82
2022/11/23 23:12:11;;;;;;;13.70;2.60;;;;;;;5.81;65.95;99287.91;10113586;29;20685;-82
2022/11/23 23:17:34;;;;;;;9.73;2.43;;;;;;;5.44;68.19;99284.63;10124998;29;20213;-82
2022/11/23 23:22:56;;;;;;;10.90;3.03;;;;;;;5.73;66.89;99291.56;10142213;29;20257;-82
2022/11/23 23:28:18;;;;;;;15.73;3.47;;;;;;;5.77;67.32;99303.69;10138807;29;20308;-82
2022/11/23 23:33:40;;;;;;;15.20;3.87;;;;;;;6.01;66.26;99301.25;10128556;29;20491;-82
2022/11/23 23:39:03;;;;;;;11.17;3.10;;;;;;;5.85;66.43;99309.31;10128551;29;20252;-82
2022/11/23 23:44:25;;;;;;;12.23;3.60;;;;;;;5.78;67.06;99317.34;10142083;29;20197;-82
2022/11/23 23:49:47;;;;;;;12.13;3.47;;;;;;;6.24;66.52;99321.47;10141456;29;20240;-83
2022/11/23 23:55:09;;;;;;;10.73;2.70;;;;;;;6.30;66.23;99329.34;10122784;29;20297;-83
